Time;durP1;ratioP1;P1;durP2;ratioP2;P2;SDS_P1;SDS_P2;PMS_P1;PMS_P2;Temp;Humidity;BMP_temperature;BMP_pressure;BME280_temperature;BME280_humidity;BME280_pressure;Samples;Min_cycle;Max_cycle;Signal;HPM_P1;HPM_P2
2022/12/12 00:00:13;;;;;;;;;7.00;3.75;;;;;20.98;39.14;100721.84;5032306;28;47243;-70
2022/12/12 00:02:40;;;;;;;;;7.00;5.75;;;;;21.02;39.33;100730.28;5033046;28;45306;-71
2022/12/12 00:05:06;;;;;;;;;7.00;6.25;;;;;21.01;39.14;100732.09;5031936;28;45235;-71
2022/12/12 00:07:32;;;;;;;;;5.75;4.75;;;;;21.00;39.46;100735.69;5032843;28;45330;-70
2022/12/12 00:09:57;;;;;;;;;7.00;5.00;;;;;20.99;39.35;100742.00;5032877;28;45292;-70
2022/12/12 00:12:22;;;;;;;;;5.50;5.50;;;;;20.99;39.38;100734.06;5032871;28;45573;-71
2022/12/12 00:14:48;;;;;;;;;4.25;4.25;;;;;20.99;39.17;100739.34;5032446;28;45331;-71
2022/12/12 00:17:13;;;;;;;;;8.25;5.75;;;;;20.98;39.16;100740.34;5032867;28;45293;-71
2022/12/12 00:19:38;;;;;;;;;6.25;5.75;;;;;20.61;38.76;100676.63;5045589;28;45305;-71
2022/12/12 00:22:04;;;;;;;;;5.75;5.75;;;;;20.96;39.36;100737.88;5052632;28;45384;-71
2022/12/12 00:24:29;;;;;;;;;6.50;6.00;;;;;20.96;38.93;100740.53;5052974;28;45375;-71
2022/12/12 00:26:54;;;;;;;;;6.00;5.75;;;;;20.96;39.03;100732.59;5052668;28;45301;-70
2022/12/12 00:29:20;;;;;;;;;5.75;4.25;;;;;20.86;39.12;100718.78;5052345;28;46596;-71
2022/12/12 00:31:45;;;;;;;;;5.00;4.75;;;;;20.96;38.97;100740.53;5052687;28;45328;-71
2022/12/12 00:34:10;;;;;;;;;6.25;5.25;;;;;20.96;39.16;100737.88;5052638;28;45405;-71
2022/12/12 00:36:36;;;;;;;;;7.00;6.25;;;;;20.94;39.02;100744.34;5052616;28;45277;-71
2022/12/12 00:39:02;;;;;;;;;6.00;6.00;;;;;20.94;38.88;100733.78;5052487;28;46183;-71
2022/12/12 00:41:28;;;;;;;;;7.00;5.75;;;;;20.94;38.81;100737.25;5052516;28;45314;-71
2022/12/12 00:43:53;;;;;;;;;8.00;8.00;;;;;20.94;39.21;100742.53;5052090;28;45327;-71
2022/12/12 00:46:23;;;;;;;;;6.00;5.25;;;;;20.91;38.74;100737.59;5034400;28;45354;-70
2022/12/12 00:48:52;;;;;;;;;8.25;6.75;;;;;20.91;38.65;100734.94;5052320;28;47452;-70
2022/12/12 00:51:20;;;;;;;;;6.50;6.50;;;;;20.94;38.61;100731.13;5052333;28;45285;-71
2022/12/12 00:53:46;;;;;;;;;8.75;6.00;;;;;20.94;39.19;100733.78;5049074;28;45415;-70
2022/12/12 00:56:14;;;;;;;;;8.00;5.00;;;;;20.93;38.92;100735.59;5032238;28;45334;-71
2022/12/12 00:58:40;;;;;;;;;6.00;6.00;;;;;20.95;38.93;100738.03;5031599;28;47184;-71
2022/12/12 01:01:17;;;;;;;;;6.50;6.50;;;;;20.94;39.04;100744.34;5031863;28;45456;-71
2022/12/12 01:03:44;;;;;;;;;3.00;3.00;;;;;20.92;38.89;100738.41;5032208;28;45501;-71
2022/12/12 01:06:10;;;;;;;;;8.00;6.50;;;;;20.92;38.85;100733.94;5032029;28;45525;-71
2022/12/12 01:08:36;;;;;;;;;5.75;5.00;;;;;20.91;38.67;100734.94;5031812;28;46910;-70
2022/12/12 01:11:03;;;;;;;;;7.75;5.25;;;;;20.90;38.70;100729.81;5031821;28;45516;-71
2022/12/12 01:13:29;;;;;;;;;9.25;7.25;;;;;20.92;39.23;100735.78;5031598;28;45353;-71
2022/12/12 01:15:54;;;;;;;;;6.00;6.00;;;;;20.84;38.97;100724.22;5032186;28;45329;-70
2022/12/12 01:18:20;;;;;;;;;5.25;4.50;;;;;20.90;39.10;100735.09;5036923;28;45460;-70
2022/12/12 01:20:45;;;;;;;;;7.00;6.75;;;;;20.90;39.28;100735.94;5055260;28;45301;-71
2022/12/12 01:23:11;;;;;;;;;6.25;6.25;;;;;20.76;38.89;100716.38;5055259;28;45337;-70
2022/12/12 01:25:37;;;;;;;;;6.75;6.75;;;;;20.89;39.14;100733.47;5055141;28;45296;-70
2022/12/12 01:28:03;;;;;;;;;6.75;5.00;;;;;20.83;38.87;100724.41;5054521;28;47019;-71
2022/12/12 01:30:29;;;;;;;;;6.25;5.25;;;;;20.87;38.95;100738.91;5055127;28;45261;-71
2022/12/12 01:32:54;;;;;;;;;7.25;7.25;;;;;20.87;38.74;100744.22;5055106;28;45298;-71
2022/12/12 01:35:20;;;;;;;;;7.25;6.50;;;;;20.88;39.11;100739.75;5055064;28;45356;-70
2022/12/12 01:37:48;;;;;;;;;6.50;6.50;;;;;20.85;38.78;100741.75;5054928;28;46493;-71
2022/12/12 01:40:16;;;;;;;;;6.00;6.00;;;;;20.85;39.01;100741.75;5054790;28;45439;-70
2022/12/12 01:42:42;;;;;;;;;9.50;6.25;;;;;20.85;38.97;100747.03;5054443;28;45409;-70
2022/12/12 01:45:28;;;;;;;;;3.75;2.50;;;;;20.84;39.07;100739.28;5054750;27;45343;-71
2022/12/12 01:47:53;;;;;;;;;8.25;8.25;;;;;20.83;38.91;100749.03;5054578;28;45450;-71
2022/12/12 01:50:18;;;;;;;;;7.75;5.50;;;;;20.67;39.07;100733.25;5054748;28;45354;-71
2022/12/12 01:52:48;;;;;;;;;9.00;7.00;;;;;20.83;39.02;100751.69;5054845;28;45396;-71
2022/12/12 01:55:21;;;;;;;;;7.50;7.00;;;;;20.82;38.91;100752.66;5039313;28;45317;-70
2022/12/12 01:57:50;;;;;;;;;7.75;7.00;;;;;20.81;38.91;100748.41;5033938;28;46406;-70
2022/12/12 02:00:16;;;;;;;;;6.50;6.25;;;;;20.77;39.14;100744.44;5034346;28;45360;-70
2022/12/12 02:02:43;;;;;;;;;6.00;5.00;;;;;20.81;38.93;100745.75;5034640;28;45372;-68
2022/12/12 02:05:17;;;;;;;;;8.25;6.75;;;;;20.81;39.09;100750.22;5034428;28;45388;-70
2022/12/12 02:07:43;;;;;;;;;8.00;5.50;;;;;20.75;38.97;100741.16;5034295;28;46038;-70
2022/12/12 02:10:08;;;;;;;;;9.00;7.00;;;;;20.80;38.80;100745.91;5034241;28;45351;-71
2022/12/12 02:12:33;;;;;;;;;7.25;5.50;;;;;20.81;38.67;100748.41;5034202;28;45366;-70
2022/12/12 02:14:59;;;;;;;;;7.25;7.25;;;;;20.73;38.60;100743.97;5034567;28;45411;-71
2022/12/12 02:17:45;;;;;;;;;6.50;5.50;;;;;20.81;38.79;100753.69;5034268;28;46549;-71
2022/12/12 02:20:25;;;;;;;;;8.00;6.50;;;;;20.81;38.63;100760.78;5051515;28;45287;-71
2022/12/12 02:23:22;;;;;;;;;4.00;4.00;;;;;20.80;38.69;100765.25;5054343;28;45333;-71
2022/12/12 02:26:24;;;;;;;;;6.00;6.00;;;;;20.81;38.46;100766.91;5035929;28;45365;-71
2022/12/12 02:29:26;;;;;;;;;6.25;6.25;;;;;20.80;38.56;100765.25;5053495;28;47139;-71
2022/12/12 02:32:03;;;;;;;;;5.50;5.50;;;;;20.81;38.49;100763.44;5054172;28;45497;-71
2022/12/12 02:34:28;;;;;;;;;8.25;7.25;;;;;20.80;38.49;100765.25;5054245;28;45350;-70
2022/12/12 02:37:26;;;;;;;;;4.00;4.00;;;;;20.78;38.61;100761.97;5054202;28;45294;-71
2022/12/12 02:40:02;;;;;;;;;8.25;6.75;;;;;20.79;38.76;100760.94;5053757;28;46042;-71
2022/12/12 02:42:39;;;;;;;;;5.50;4.25;;;;;20.79;38.45;100758.31;5054000;28;45213;-70
2022/12/12 02:45:12;;;;;;;;;9.00;8.00;;;;;20.80;38.54;100759.13;5054128;28;45375;-70
2022/12/12 02:47:49;;;;;;;;;6.00;6.00;;;;;20.79;38.72;100760.94;5054038;28;45354;-70
2022/12/12 02:50:20;;;;;;;;;9.00;6.25;;;;;20.79;38.38;100768.09;5053891;28;47413;-70
2022/12/12 02:52:46;;;;;;;;;13.25;7.00;;;;;20.78;38.59;100766.41;5053895;28;45416;-71
2022/12/12 02:55:13;;;;;;;;;10.75;7.25;;;;;20.75;38.81;100764.94;5038379;28;45325;-70
2022/12/12 02:57:41;;;;;;;;;8.75;7.75;;;;;20.72;38.46;100752.06;5033783;28;45346;-71
2022/12/12 03:00:09;;;;;;;;;8.75;6.75;;;;;20.77;38.73;100772.69;5033350;28;46376;-71
2022/12/12 03:07:45;;;;;;;;;7.50;5.75;;;;;20.77;38.48;100768.25;5033915;27;45432;-71
2022/12/12 03:08:45;;;;;;;;;8.00;5.75;;;;;20.76;38.75;100765.78;5033548;28;45259;-71
2022/12/12 03:11:16;;;;;;;;;9.25;7.50;;;;;20.69;38.54;100760.34;5033405;28;45769;-71
2022/12/12 03:14:03;;;;;;;;;10.50;8.25;;;;;20.76;38.83;100771.06;5033526;28;45424;-72
2022/12/12 03:16:29;;;;;;;;;7.25;6.25;;;;;20.74;38.76;100764.13;5033654;28;45466;-71
2022/12/12 03:19:12;;;;;;;;;7.75;7.75;;;;;20.72;38.57;100763.47;5040412;28;45434;-71
2022/12/12 03:21:57;;;;;;;;;6.00;6.00;;;;;20.72;38.67;100758.19;5053603;28;47055;-70
2022/12/12 03:24:41;;;;;;;;;6.00;5.75;;;;;20.63;38.41;100741.53;5053219;28;45324;-70
2022/12/12 03:27:17;;;;;;;;;6.50;6.00;;;;;20.73;38.23;100757.19;5053611;28;45597;-71
2022/12/12 03:29:50;;;;;;;;;5.25;5.25;;;;;20.73;38.26;100751.09;5053552;28;45349;-70
2022/12/12 03:32:24;;;;;;;;;9.75;9.25;;;;;20.72;38.70;100747.63;5053435;28;47462;-70
2022/12/12 03:34:58;;;;;;;;;8.25;5.75;;;;;20.71;38.68;100745.94;5053382;28;45349;-70
2022/12/12 03:37:32;;;;;;;;;8.00;6.00;;;;;20.65;38.88;100737.91;5053118;28;45316;-69
2022/12/12 03:40:07;;;;;;;;;9.75;9.00;;;;;20.72;38.69;100747.63;5052265;28;45286;-71
2022/12/12 03:42:45;;;;;;;;;5.50;5.50;;;;;20.72;38.38;100757.34;5053331;28;45404;-70
2022/12/12 03:45:22;;;;;;;;;6.00;5.00;;;;;20.72;38.49;100749.44;5053281;28;45320;-71
2022/12/12 03:47:57;;;;;;;;;7.00;7.00;;;;;20.70;38.44;100754.91;5053351;28;45267;-70
2022/12/12 03:50:33;;;;;;;;;9.00;7.00;;;;;20.64;38.13;100747.66;5053340;28;45428;-70
2022/12/12 03:53:27;;;;;;;;;5.75;5.25;;;;;20.72;38.36;100762.66;5052785;28;46290;-70
2022/12/12 03:55:55;;;;;;;;;5.25;5.25;;;;;20.73;38.74;100767.78;4995742;28;45394;-71
2022/12/12 03:58:33;;;;;;;;;6.75;5.75;;;;;20.72;38.06;100768.75;5013073;28;45393;-71
2022/12/12 04:01:03;;;;;;;;;7.25;6.00;;;;;20.66;38.03;100758.88;5012846;28;45291;-70
2022/12/12 04:03:31;;;;;;;;;8.50;8.00;;;;;20.72;37.49;100766.13;5012860;28;46989;-71
2022/12/12 04:06:27;;;;;;;;;6.50;6.50;;;;;20.61;38.41;100750.63;5012145;28;45320;-71
2022/12/12 04:14:56;;;;;;;;;8.25;8.00;;;;;20.73;38.39;100780.16;5012806;28;45353;-70
2022/12/12 04:17:35;;;;;;;;;6.75;6.00;;;;;20.72;37.88;100771.41;5012835;28;45478;-71
2022/12/12 04:23:40;;;;;;;;;7.75;6.75;;;;;20.71;38.29;100772.38;5052877;28;45313;-71
2022/12/12 04:29:14;;;;;;;;;7.75;5.75;;;;;20.71;37.88;100772.38;5052681;28;45450;-71
2022/12/12 04:32:04;;;;;;;;;8.00;6.75;;;;;20.58;38.39;100759.72;5052788;28;45466;-71
2022/12/12 04:34:52;;;;;;;;;6.50;6.00;;;;;20.71;38.13;100779.53;4951499;28;45648;-71
2022/12/12 04:37:22;;;;;;;;;7.75;7.00;;;;;20.70;38.51;100775.22;4951177;28;45405;-70
2022/12/12 04:39:52;;;;;;;;;7.50;7.00;;;;;20.69;38.15;100768.28;4951555;28;45410;-70
2022/12/12 04:42:21;;;;;;;;;9.00;6.25;;;;;20.69;38.09;100770.91;4951570;28;45462;-71
2022/12/12 04:44:49;;;;;;;;;7.25;7.00;;;;;20.63;37.84;100761.88;4951394;28;45511;-70
2022/12/12 04:47:17;;;;;;;;;5.75;5.75;;;;;20.69;38.45;100776.19;4951391;28;46341;-71
2022/12/12 04:49:46;;;;;;;;;7.25;5.75;;;;;20.70;38.63;100772.56;4951327;28;45412;-70
2022/12/12 04:52:14;;;;;;;;;8.25;6.50;;;;;20.70;38.24;100777.88;4953150;28;45302;-71
2022/12/12 04:54:44;;;;;;;;;6.25;6.00;;;;;20.70;37.97;100769.94;4944193;28;45517;-71
2022/12/12 04:57:16;;;;;;;;;5.75;4.00;;;;;20.69;38.29;100763.81;4934938;28;46183;-71
2022/12/12 04:59:42;;;;;;;;;6.75;5.25;;;;;20.63;37.97;100759.22;4918613;28;45378;-71
2022/12/12 05:02:23;;;;;;;;;7.50;7.50;;;;;20.68;38.37;100775.41;4934776;28;45404;-70
2022/12/12 05:04:52;;;;;;;;;8.25;6.50;;;;;20.68;38.37;100777.22;4934577;28;45287;-71
2022/12/12 05:07:26;;;;;;;;;8.00;5.75;;;;;20.68;38.14;100777.22;4934703;28;45454;-71
2022/12/12 05:09:52;;;;;;;;;9.75;8.00;;;;;20.68;38.39;100774.56;4934689;28;45470;-71
2022/12/12 05:12:19;;;;;;;;;9.75;8.75;;;;;20.57;38.08;100763.38;4998187;28;45367;-70
2022/12/12 05:14:45;;;;;;;;;7.25;7.25;;;;;20.67;38.00;100775.56;5015339;28;45354;-70
2022/12/12 05:17:15;;;;;;;;;8.00;8.00;;;;;20.67;38.14;100784.31;5015062;28;46065;-71
2022/12/12 05:19:40;;;;;;;;;6.50;6.00;;;;;20.66;37.75;100781.84;5041116;28;45306;-70
2022/12/12 05:22:06;;;;;;;;;7.25;7.25;;;;;20.66;38.10;100779.22;5055179;28;45452;-71
2022/12/12 05:24:31;;;;;;;;;4.50;4.00;;;;;20.64;37.79;100771.44;5055267;28;45575;-71
2022/12/12 05:26:57;;;;;;;;;9.25;8.25;;;;;20.50;37.73;100755.34;5054850;28;45412;-71
2022/12/12 05:29:23;;;;;;;;;7.75;7.75;;;;;20.64;37.97;100771.44;5055160;28;45357;-70
2022/12/12 05:31:48;;;;;;;;;6.75;5.25;;;;;20.65;38.20;100774.91;5055100;28;45313;-71
2022/12/12 05:34:14;;;;;;;;;7.00;5.75;;;;;20.64;38.04;100776.72;5054554;28;45394;-71
2022/12/12 05:36:39;;;;;;;;;6.00;5.75;;;;;20.61;37.83;100772.59;5054949;28;46175;-70
2022/12/12 05:39:04;;;;;;;;;6.25;6.25;;;;;20.58;38.38;100770.31;5036831;28;45734;-71
2022/12/12 05:41:30;;;;;;;;;8.00;7.00;;;;;20.65;37.77;100778.38;5054971;28;45323;-70
2022/12/12 05:43:55;;;;;;;;;6.00;6.00;;;;;20.56;37.91;100771.47;5055074;28;45511;-70
2022/12/12 05:46:20;;;;;;;;;6.50;6.50;;;;;20.66;38.25;100784.50;5054616;28;46014;-71
2022/12/12 05:48:49;;;;;;;;;8.00;7.00;;;;;20.62;37.81;100778.72;5054484;28;45319;-70
2022/12/12 05:51:16;;;;;;;;;8.00;7.00;;;;;20.62;37.71;100776.91;5054935;28;46005;-71
2022/12/12 05:53:43;;;;;;;;;7.25;4.50;;;;;20.69;37.88;100784.13;5051981;28;45347;-70
2022/12/12 05:56:10;;;;;;;;;9.00;8.25;;;;;20.66;37.76;100776.56;5034290;28;47279;-70
2022/12/12 05:58:36;;;;;;;;;6.75;6.00;;;;;20.69;37.91;100779.69;5034439;28;45579;-71
2022/12/12 06:01:03;;;;;;;;;6.00;6.00;;;;;20.71;37.81;100776.88;5034361;28;45359;-71
2022/12/12 06:03:28;;;;;;;;;7.00;7.00;;;;;20.68;37.75;100771.94;5031960;28;45303;-71
2022/12/12 06:05:54;;;;;;;;;9.50;6.25;;;;;20.62;37.98;100770.78;5034058;28;47102;-71
2022/12/12 06:08:19;;;;;;;;;7.25;5.75;;;;;20.72;37.81;100778.50;5034424;28;45470;-71
2022/12/12 06:10:44;;;;;;;;;5.00;5.00;;;;;20.72;37.61;100776.69;5034478;28;45285;-71
2022/12/12 06:13:10;;;;;;;;;8.75;6.25;;;;;20.73;38.09;100781.00;5034395;28;45494;-71
2022/12/12 06:15:39;;;;;;;;;10.75;7.00;;;;;20.65;37.73;100774.91;5034335;28;45323;-71
2022/12/12 06:18:04;;;;;;;;;8.25;7.00;;;;;20.74;37.95;100789.72;5033740;28;45376;-71
2022/12/12 06:20:30;;;;;;;;;8.00;7.75;;;;;20.69;37.77;100784.97;5054407;28;45330;-71
2022/12/12 06:22:56;;;;;;;;;6.75;4.25;;;;;20.74;37.54;100795.84;5054474;28;45291;-70
2022/12/12 06:25:21;;;;;;;;;5.00;4.75;;;;;20.69;37.68;100782.31;5054292;28;46296;-71
2022/12/12 06:27:47;;;;;;;;;8.75;7.25;;;;;20.74;38.02;100798.50;5054262;28;45243;-72
2022/12/12 06:30:12;;;;;;;;;8.25;8.00;;;;;20.73;37.68;100790.75;5054354;28;45303;-71
2022/12/12 06:32:38;;;;;;;;;7.75;6.25;;;;;20.74;37.91;100795.84;5054048;28;45369;-71
2022/12/12 06:35:03;;;;;;;;;6.75;6.00;;;;;20.73;38.12;100794.22;5054000;28;46068;-71
2022/12/12 06:37:29;;;;;;;;;8.50;6.00;;;;;20.76;38.02;100798.34;5053984;28;45391;-70
2022/12/12 06:39:54;;;;;;;;;7.50;7.50;;;;;20.76;38.02;100803.63;5054208;28;45321;-71
2022/12/12 06:42:19;;;;;;;;;7.00;6.00;;;;;20.77;38.34;100815.00;5054147;28;45339;-73
2022/12/12 06:44:45;;;;;;;;;7.25;6.00;;;;;20.75;38.28;100820.47;5053974;28;45950;-70
2022/12/12 06:47:10;;;;;;;;;5.75;5.00;;;;;20.78;38.32;100822.78;5053719;28;45383;-74
2022/12/12 06:49:36;;;;;;;;;7.00;5.50;;;;;20.78;38.26;100820.13;5054298;28;45504;-74
2022/12/12 06:52:01;;;;;;;;;7.75;6.75;;;;;20.79;38.50;100829.69;5054263;28;45485;-73
2022/12/12 06:54:26;;;;;;;;;5.75;5.00;;;;;20.75;38.36;100817.81;5044992;28;46139;-74
2022/12/12 06:56:52;;;;;;;;;5.25;5.25;;;;;20.70;38.64;100810.41;5015857;28;46050;-70
2022/12/12 06:59:17;;;;;;;;;6.25;5.50;;;;;20.74;38.49;100811.72;5033998;28;45417;-71
2022/12/12 07:01:43;;;;;;;;;4.25;4.25;;;;;20.76;38.64;100823.94;5033284;28;45453;-71
2022/12/12 07:04:11;;;;;;;;;4.25;4.25;;;;;20.81;38.92;100825.09;5033409;28;47456;-71
2022/12/12 07:06:36;;;;;;;;;7.00;4.75;;;;;20.82;38.93;100832.00;5033723;28;45344;-71
2022/12/12 07:09:02;;;;;;;;;8.50;6.00;;;;;20.81;38.87;100817.16;5033612;28;45374;-70
2022/12/12 07:11:28;;;;;;;;;5.00;5.00;;;;;20.79;39.03;100821.75;5033719;28;45297;-71
2022/12/12 07:13:55;;;;;;;;;9.50;6.00;;;;;20.84;39.09;100826.56;5033299;28;46205;-71
2022/12/12 07:16:21;;;;;;;;;3.75;3.75;;;;;20.85;39.13;100831.66;5033075;28;45300;-71
2022/12/12 07:18:47;;;;;;;;;8.50;8.00;;;;;20.85;38.62;100821.09;5039357;28;45609;-71
2022/12/12 07:21:15;;;;;;;;;7.75;4.50;;;;;20.77;39.00;100823.75;5053753;28;45329;-71
2022/12/12 07:23:41;;;;;;;;;6.50;6.00;;;;;20.82;39.08;100818.78;5053481;28;46384;-70
2022/12/12 07:26:11;;;;;;;;;7.50;6.00;;;;;20.87;38.77;100825.41;5053615;28;45257;-71
2022/12/12 07:28:37;;;;;;;;;7.50;6.75;;;;;20.85;39.04;100820.25;5053799;28;45297;-71
2022/12/12 07:31:08;;;;;;;;;9.00;5.75;;;;;20.85;39.36;100823.72;5053140;28;45424;-71
2022/12/12 07:33:34;;;;;;;;;4.00;4.00;;;;;20.88;38.53;100832.31;5052592;28;47594;-72
2022/12/12 07:35:59;;;;;;;;;8.50;6.00;;;;;20.89;38.89;100839.25;5053211;28;45427;-70
2022/12/12 07:38:26;;;;;;;;;6.75;5.00;;;;;20.87;38.99;100831.47;5053554;28;45380;-70
2022/12/12 07:40:51;;;;;;;;;4.50;4.00;;;;;20.87;38.83;100834.13;5053432;28;45337;-70
2022/12/12 07:43:16;;;;;;;;;5.00;5.00;;;;;20.89;38.84;100832.16;5053310;28;45353;-70
2022/12/12 07:45:46;;;;;;;;;6.75;4.00;;;;;20.91;38.62;100829.31;5052862;28;45441;-70
2022/12/12 07:48:11;;;;;;;;;6.00;5.00;;;;;20.90;38.82;100836.44;5053420;28;45513;-70
2022/12/12 07:50:38;;;;;;;;;11.50;5.75;;;;;20.89;38.81;100834.81;5053392;28;45408;-71
2022/12/12 07:53:03;;;;;;;;;4.00;4.00;;;;;20.90;38.51;100832.97;5053049;28;45255;-70
2022/12/12 07:55:29;;;;;;;;;6.00;5.50;;;;;20.89;38.82;100833.97;5035385;28;45354;-70
2022/12/12 07:57:54;;;;;;;;;6.75;6.75;;;;;20.89;38.45;100847.19;5033202;28;45456;-70
2022/12/12 08:00:20;;;;;;;;;7.75;6.00;;;;;20.89;38.41;100839.25;5032449;28;45526;-70
2022/12/12 08:02:46;;;;;;;;;8.75;6.75;;;;;20.88;38.68;100835.78;5033068;28;45517;-70
2022/12/12 08:05:11;;;;;;;;;5.00;5.00;;;;;20.87;38.33;100838.63;5032895;28;45629;-70
2022/12/12 08:07:37;;;;;;;;;5.75;5.00;;;;;20.85;38.67;100836.97;5015198;28;45505;-70
2022/12/12 08:10:03;;;;;;;;;7.00;5.50;;;;;20.83;38.63;100838.94;5032851;28;45527;-70
2022/12/12 08:12:29;;;;;;;;;9.25;7.25;;;;;20.76;38.58;100827.41;5032809;28;46440;-70
2022/12/12 08:14:55;;;;;;;;;5.25;5.25;;;;;20.84;38.18;100848.53;5032421;28;45315;-70
2022/12/12 08:17:20;;;;;;;;;6.00;5.00;;;;;20.83;38.42;100844.25;5032854;28;45321;-70
2022/12/12 08:19:45;;;;;;;;;9.25;9.25;;;;;20.82;38.68;100834.66;5046678;28;45441;-70
2022/12/12 08:22:11;;;;;;;;;9.00;8.00;;;;;20.82;38.20;100828.53;5052645;28;45302;-70
2022/12/12 08:24:36;;;;;;;;;6.75;5.00;;;;;20.82;38.33;100847.88;5052702;28;45380;-70
2022/12/12 08:27:02;;;;;;;;;7.50;6.75;;;;;20.76;38.33;100851.22;5051669;28;45467;-70
2022/12/12 08:29:27;;;;;;;;;6.00;4.75;;;;;20.81;38.46;100863.91;5034470;28;45433;-70
2022/12/12 08:31:52;;;;;;;;;4.00;4.00;;;;;20.80;38.23;100854.31;5052674;28;47279;-70
2022/12/12 08:34:18;;;;;;;;;6.75;6.50;;;;;20.79;38.11;100864.06;5052696;28;45359;-70
2022/12/12 08:36:44;;;;;;;;;7.00;5.25;;;;;20.67;38.08;100847.78;5052648;28;45379;-70
2022/12/12 08:39:12;;;;;;;;;6.50;6.00;;;;;20.78;38.50;100880.94;5052833;28;45468;-70
2022/12/12 08:41:40;;;;;;;;;7.50;7.00;;;;;20.77;38.26;100887.22;5052391;28;46210;-70
2022/12/12 08:44:06;;;;;;;;;7.50;7.50;;;;;20.74;38.37;100883.09;5051813;28;45391;-70
2022/12/12 08:46:32;;;;;;;;;7.25;7.25;;;;;20.77;38.18;100886.41;5052409;28;45344;-70
2022/12/12 08:48:57;;;;;;;;;7.25;6.75;;;;;20.76;38.25;100887.41;5052414;28;45236;-70
2022/12/12 08:51:23;;;;;;;;;6.75;6.00;;;;;20.76;38.63;100882.13;5052253;28;46045;-70
2022/12/12 08:53:51;;;;;;;;;6.00;5.00;;;;;20.74;38.29;100888.38;5048866;28;45230;-70
2022/12/12 08:56:18;;;;;;;;;7.75;7.75;;;;;20.68;38.07;100873.22;5032044;28;45355;-70
2022/12/12 08:58:45;;;;;;;;;5.00;5.00;;;;;20.74;38.11;100898.97;5032323;28;45447;-70
2022/12/12 09:01:16;;;;;;;;;7.75;5.50;;;;;20.73;38.10;100894.69;5031757;28;47009;-70
2022/12/12 09:03:42;;;;;;;;;5.75;4.75;;;;;20.72;38.25;100902.78;5032188;28;45612;-70
2022/12/12 09:06:09;;;;;;;;;7.00;7.00;;;;;20.69;38.24;100889.88;5032063;28;45839;-70
2022/12/12 09:08:35;;;;;;;;;8.50;7.00;;;;;20.75;38.08;100905.09;5032127;28;45259;-70
2022/12/12 09:11:01;;;;;;;;;7.00;6.00;;;;;20.68;37.92;100886.44;5031442;28;46411;-70
2022/12/12 09:13:26;;;;;;;;;6.00;3.75;;;;;20.72;37.84;100900.13;5031838;28;45317;-70
2022/12/12 09:15:52;;;;;;;;;5.50;5.50;;;;;20.69;37.81;100887.25;5032041;28;45840;-70
2022/12/12 09:18:19;;;;;;;;;9.00;6.25;;;;;20.72;37.76;100893.03;5033612;27;45574;-70
2022/12/12 09:21:04;;;;;;;;;8.50;5.75;;;;;20.72;37.87;100893.03;5033825;28;47380;-70
2022/12/12 09:23:29;;;;;;;;;7.00;7.00;;;;;20.73;38.14;100896.50;5051693;28;45338;-70
2022/12/12 09:25:55;;;;;;;;;8.75;6.75;;;;;20.70;37.82;100879.16;5051480;28;45577;-70
2022/12/12 09:28:23;;;;;;;;;9.25;6.25;;;;;20.71;37.84;100874.69;5051887;28;45465;-70
2022/12/12 09:30:49;;;;;;;;;7.00;6.75;;;;;20.69;38.20;100872.22;5051730;28;45438;-70
2022/12/12 09:33:16;;;;;;;;;6.50;5.25;;;;;20.71;37.90;100883.44;5051689;28;45432;-69
2022/12/12 09:35:41;;;;;;;;;7.00;6.00;;;;;20.69;38.10;100871.38;5051683;28;45328;-70
2022/12/12 09:38:07;;;;;;;;;7.25;7.00;;;;;20.70;37.98;100867.75;5052170;28;45370;-70
2022/12/12 09:40:42;;;;;;;;;6.00;6.00;;;;;20.70;38.08;100879.16;5054566;28;46092;-70
2022/12/12 09:43:18;;;;;;;;;6.00;6.00;;;;;20.69;37.88;100874.84;5056072;27;45301;-70
2022/12/12 09:45:44;;;;;;;;;5.75;5.00;;;;;20.69;38.15;100866.94;5054758;28;45411;-70
2022/12/12 09:48:20;;;;;;;;;7.50;5.00;;;;;20.68;37.85;100869.75;5054683;28;45402;-70
2022/12/12 09:50:48;;;;;;;;;6.00;6.00;;;;;20.58;38.19;100854.88;5054561;28;46212;-70
2022/12/12 09:53:17;;;;;;;;;8.00;5.25;;;;;20.68;38.09;100875.03;5054613;28;45459;-70
2022/12/12 09:56:09;;;;;;;;;6.25;5.25;;;;;20.69;37.96;100876.66;5034933;28;45468;-70
2022/12/12 09:58:48;;;;;;;;;4.25;4.25;;;;;20.67;37.91;100874.22;5034544;27;45528;-70
2022/12/12 10:01:33;;;;;;;;;5.25;4.50;;;;;20.66;37.85;100883.13;5034154;28;46259;-70
2022/12/12 10:04:16;;;;;;;;;8.00;6.50;;;;;20.67;38.15;100894.53;5034400;28;45384;-70
2022/12/12 10:07:01;;;;;;;;;5.75;5.00;;;;;20.63;37.84;100875.56;5034560;28;45427;-69
2022/12/12 10:09:41;;;;;;;;;4.75;4.75;;;;;20.65;37.80;100876.19;5034284;28;45364;-69
2022/12/12 10:12:14;;;;;;;;;5.75;5.25;;;;;20.64;37.83;100866.59;5034139;28;47374;-69
2022/12/12 10:14:44;;;;;;;;;7.75;6.00;;;;;20.60;37.95;100855.56;5034320;28;45308;-70
2022/12/12 10:17:21;;;;;;;;;6.00;5.00;;;;;20.63;38.13;100860.50;5034293;28;45327;-69
2022/12/12 10:19:50;;;;;;;;;5.00;5.00;;;;;20.63;37.89;100865.78;5048203;27;45514;-70
2022/12/12 10:22:27;;;;;;;;;7.00;6.25;;;;;20.62;37.79;100853.56;5054120;28;46797;-70
2022/12/12 10:25:02;;;;;;;;;7.00;6.25;;;;;20.58;38.07;100838.22;5053770;28;45523;-70
2022/12/12 10:27:28;;;;;;;;;9.00;7.00;;;;;20.62;38.05;100842.16;5054371;28;45408;-69
2022/12/12 10:29:55;;;;;;;;;8.25;6.75;;;;;20.61;37.75;100843.16;5054319;28;45327;-70
2022/12/12 10:32:43;;;;;;;;;8.00;6.00;;;;;20.60;37.95;100846.81;5054060;28;45341;-69
2022/12/12 10:35:44;;;;;;;;;4.75;4.75;;;;;20.60;37.92;100849.44;5039621;28;45483;-69
2022/12/12 10:38:36;;;;;;;;;7.50;5.50;;;;;20.60;37.75;100847.63;5053093;28;45348;-69
2022/12/12 10:41:15;;;;;;;;;6.50;6.00;;;;;20.56;37.58;100850.75;5054131;28;45410;-69
2022/12/12 10:43:57;;;;;;;;;5.50;5.00;;;;;20.59;37.74;100855.72;5053854;28;46356;-69
2022/12/12 10:46:53;;;;;;;;;5.00;3.75;;;;;20.60;37.75;100857.38;5053926;28;45397;-70
2022/12/12 10:49:22;;;;;;;;;6.50;4.25;;;;;20.59;37.83;100853.91;5053531;28;45350;-69
2022/12/12 10:51:49;;;;;;;;;5.50;5.50;;;;;20.59;37.45;100853.06;5054004;28;45331;-69
2022/12/12 10:54:21;;;;;;;;;6.00;6.00;;;;;20.60;37.55;100860.03;5046379;28;45489;-69
2022/12/12 10:57:04;;;;;;;;;7.00;6.25;;;;;20.59;37.53;100848.63;5033723;28;45383;-69
2022/12/12 10:59:37;;;;;;;;;6.25;5.25;;;;;20.60;37.20;100841.53;5033871;28;45341;-69
2022/12/12 11:02:02;;;;;;;;;5.25;5.25;;;;;20.56;37.46;100835.75;5033571;28;45393;-70
2022/12/12 11:04:30;;;;;;;;;9.50;9.00;;;;;20.60;37.38;100837.06;5033652;28;46176;-69
2022/12/12 11:06:56;;;;;;;;;6.25;6.00;;;;;20.60;37.21;100838.88;5033471;28;45451;-69
2022/12/12 11:09:27;;;;;;;;;5.00;4.75;;;;;20.60;37.36;100823.03;5033849;28;45378;-70
2022/12/12 11:12:00;;;;;;;;;6.50;5.75;;;;;20.60;37.58;100813.28;5033947;28;45300;-70
2022/12/12 11:14:43;;;;;;;;;8.25;7.50;;;;;20.61;37.62;100806.13;5033541;28;47222;-69
2022/12/12 11:17:24;;;;;;;;;8.25;7.50;;;;;20.60;37.21;100800.06;5033551;28;45313;-70
2022/12/12 11:19:52;;;;;;;;;7.00;7.00;;;;;20.59;37.43;100797.56;5047896;28;45320;-70
2022/12/12 11:22:18;;;;;;;;;5.00;4.50;;;;;20.48;37.85;100772.34;5053354;28;45312;-69
2022/12/12 11:24:46;;;;;;;;;7.75;6.00;;;;;20.59;37.60;100777.25;5052040;28;46720;-70
2022/12/12 11:27:27;;;;;;;;;7.75;7.25;;;;;20.58;37.44;100767.66;5053547;28;45447;-70
2022/12/12 11:30:01;;;;;;;;;5.50;5.50;;;;;20.58;37.49;100770.31;5053646;28;45248;-69
2022/12/12 11:32:54;;;;;;;;;6.75;6.50;;;;;20.56;37.82;100766.19;5053503;28;45327;-70
2022/12/12 11:35:24;;;;;;;;;7.25;6.25;;;;;20.57;37.54;100771.31;5049313;28;46369;-69
2022/12/12 11:37:54;;;;;;;;;7.25;5.50;;;;;20.54;37.63;100763.72;5052891;28;45439;-69
2022/12/12 11:40:33;;;;;;;;;6.00;4.50;;;;;20.54;37.50;100752.31;5053543;28;45470;-69
2022/12/12 11:43:26;;;;;;;;;9.75;6.75;;;;;20.56;37.51;100748.50;5053345;28;45230;-69
2022/12/12 11:46:07;;;;;;;;;6.00;5.00;;;;;20.56;37.67;100739.75;5049205;28;46421;-69
2022/12/12 11:48:50;;;;;;;;;9.25;6.25;;;;;20.57;37.67;100730.84;5053110;28;45429;-69
2022/12/12 11:51:40;;;;;;;;;6.00;5.00;;;;;20.55;37.63;100731.03;5053043;28;45339;-69
2022/12/12 11:54:19;;;;;;;;;5.00;3.75;;;;;20.55;37.46;100730.19;5047250;28;45443;-69